Time;durP1;ratioP1;P1;durP2;ratioP2;P2;SDS_P1;SDS_P2;PMS_P1;PMS_P2;Temp;Humidity;BMP_temperature;BMP_pressure;BME280_temperature;BME280_humidity;BME280_pressure;Samples;Min_cycle;Max_cycle;Signal;HPM_P1;HPM_P2
2022/04/16 00:00:59;;;;;;;2.77;2.50;;;;;;;15.64;42.26;99727.22;7008159;28;20271;-80
2022/04/16 00:04:21;;;;;;;3.00;2.70;;;;;;;16.06;41.63;99742.94;7008065;28;20207;-80
2022/04/16 00:07:43;;;;;;;2.20;2.10;;;;;;;16.06;41.88;99740.22;7006951;28;20812;-80
2022/04/16 00:11:05;;;;;;;2.80;2.33;;;;;;;16.15;41.43;99743.53;7008028;28;20314;-80
2022/04/16 00:14:27;;;;;;;2.20;2.10;;;;;;;16.17;41.06;99733.25;7008779;28;20292;-80
2022/04/16 00:17:50;;;;;;;2.23;2.10;;;;;;;16.05;41.18;99735.81;7007949;28;20213;-80
2022/04/16 00:21:11;;;;;;;2.10;2.00;;;;;;;15.85;41.51;99735.09;7008601;28;20263;-80
2022/04/16 00:24:33;;;;;;;3.00;2.27;;;;;;;15.99;41.55;99749.47;7008368;28;20197;-79
2022/04/16 00:27:55;;;;;;;2.50;2.30;;;;;;;15.73;42.20;99753.13;7007633;28;20228;-80
2022/04/16 00:31:16;;;;;;;2.83;2.53;;;;;;;15.89;42.10;99752.66;7009213;28;20222;-80
2022/04/16 00:34:40;;;;;;;2.40;2.30;;;;;;;15.96;41.58;99745.28;7008998;28;20214;-80
2022/04/16 00:38:02;;;;;;;5.17;4.30;;;;;;;15.86;41.51;99730.50;7008388;28;20257;-80
2022/04/16 00:41:23;;;;;;;2.17;2.07;;;;;;;16.07;41.18;99730.16;7008346;28;20288;-80
2022/04/16 00:44:45;;;;;;;3.23;2.60;;;;;;;15.74;41.51;99714.00;7008533;28;20210;-79
2022/04/16 00:48:07;;;;;;;2.50;2.30;;;;;;;15.64;42.32;99745.44;7007846;28;20235;-79
2022/04/16 00:51:31;;;;;;;2.73;2.47;;;;;;;15.64;42.23;99727.22;7008304;28;20677;-80
2022/04/16 00:54:56;;;;;;;2.40;2.20;;;;;;;15.71;42.59;99749.81;7008941;28;20715;-79
2022/04/16 00:58:17;;;;;;;2.37;2.27;;;;;;;15.41;43.37;99748.66;7007849;28;20552;-79
2022/04/16 01:01:39;;;;;;;2.80;2.60;;;;;;;15.43;42.75;99741.09;7008482;28;20305;-80
2022/04/16 01:05:00;;;;;;;2.47;2.30;;;;;;;15.27;43.33;99752.41;7007991;28;20202;-80
2022/04/16 01:08:25;;;;;;;2.20;2.10;;;;;;;15.22;43.42;99749.47;7006644;28;20210;-80
2022/04/16 01:11:47;;;;;;;2.80;2.50;;;;;;;15.02;43.33;99728.81;7008105;28;20262;-80
2022/04/16 01:15:10;;;;;;;2.70;2.50;;;;;;;14.70;44.45;99744.06;7008546;28;20240;-80
2022/04/16 01:18:32;;;;;;;2.50;2.30;;;;;;;15.04;43.32;99715.88;7008585;28;20230;-80
2022/04/16 01:21:53;;;;;;;2.70;2.50;;;;;;;14.70;44.67;99743.25;7008975;28;20275;-79
2022/04/16 01:25:17;;;;;;;2.33;2.13;;;;;;;14.57;45.56;99756.84;7009726;28;20273;-80
2022/04/16 01:28:38;;;;;;;3.13;2.87;;;;;;;14.62;45.70;99747.00;7009484;28;20248;-79
2022/04/16 01:32:00;;;;;;;2.70;2.50;;;;;;;14.69;45.74;99750.56;7009937;28;20305;-78
2022/04/16 01:35:21;;;;;;;2.90;2.70;;;;;;;14.36;46.11;99733.44;7017310;28;20202;-80
2022/04/16 01:38:43;;;;;;;3.10;2.90;;;;;;;14.20;46.81;99738.38;7008018;28;20671;-80
2022/04/16 01:42:07;;;;;;;2.77;2.57;;;;;;;14.13;46.82;99743.78;7005113;28;20240;-80
2022/04/16 01:45:29;;;;;;;2.73;2.53;;;;;;;14.03;47.27;99775.88;7005452;28;20255;-79
2022/04/16 01:48:53;;;;;;;2.90;2.70;;;;;;;14.06;46.89;99778.19;7004651;28;20219;-80
2022/04/16 01:52:15;;;;;;;2.90;2.70;;;;;;;14.21;45.93;99770.75;7005713;28;20202;-80
2022/04/16 01:55:37;;;;;;;2.80;2.60;;;;;;;14.07;45.67;99751.88;7006329;28;20233;-80
2022/04/16 01:58:59;;;;;;;3.83;2.80;;;;;;;13.94;46.26;99754.56;7005793;28;20259;-80
2022/04/16 02:02:21;;;;;;;3.00;2.73;;;;;;;14.24;45.41;99762.22;7006216;28;20750;-79
2022/04/16 02:05:43;;;;;;;3.33;3.03;;;;;;;13.98;45.54;99772.13;7005819;28;20197;-79
2022/04/16 02:09:04;;;;;;;4.83;3.27;;;;;;;13.88;45.73;99769.78;7006307;28;20711;-79
2022/04/16 02:12:26;;;;;;;3.20;2.90;;;;;;;13.65;47.16;99763.84;7007411;28;20206;-79
2022/04/16 02:15:49;;;;;;;3.30;3.00;;;;;;;13.52;47.13;99760.22;7006537;28;20213;-79
2022/04/16 02:19:10;;;;;;;3.10;2.80;;;;;;;13.39;47.17;99768.28;7005654;28;20233;-80
2022/04/16 02:22:39;;;;;;;3.73;3.10;;;;;;;13.03;49.05;99773.03;7004198;28;20565;-79
2022/04/16 02:26:02;;;;;;;3.07;2.87;;;;;;;12.22;50.32;99724.03;7002509;28;20210;-79
2022/04/16 02:29:23;;;;;;;3.67;3.17;;;;;;;12.45;50.30;99759.81;7003638;28;20226;-79
2022/04/16 02:32:47;;;;;;;4.07;2.77;;;;;;;12.62;50.44;99761.22;7003891;28;20605;-79
2022/04/16 02:36:10;;;;;;;3.07;2.87;;;;;;;12.92;49.35;99763.53;7002967;28;20244;-80
2022/04/16 02:39:31;;;;;;;3.30;3.07;;;;;;;12.77;48.96;99773.66;7003504;28;20703;-79
2022/04/16 02:42:53;;;;;;;2.60;2.47;;;;;;;12.53;49.63;99760.53;7002498;28;20721;-80
2022/04/16 02:50:03;;;;;;;3.23;2.93;;;;;;;12.24;50.60;99770.63;6965678;28;20221;-81
2022/04/16 02:53:26;;;;;;;4.17;3.10;;;;;;;12.31;50.50;99774.22;7002142;28;20203;-81
2022/04/16 02:56:47;;;;;;;3.13;2.80;;;;;;;12.47;49.59;99763.16;7001786;28;20199;-81
2022/04/16 03:00:11;;;;;;;3.20;2.90;;;;;;;12.56;49.18;99784.47;7002853;28;20324;-82
2022/04/16 03:03:32;;;;;;;2.97;2.73;;;;;;;12.36;49.71;99786.16;7002897;28;20701;-81
2022/04/16 03:06:55;;;;;;;2.90;2.70;;;;;;;12.18;49.87;99788.47;7001211;28;20221;-81
2022/04/16 03:10:17;;;;;;;3.17;2.93;;;;;;;11.32;51.27;99738.09;7001714;28;20851;-80
2022/04/16 03:13:38;;;;;;;3.60;3.30;;;;;;;11.31;51.66;99772.34;7002159;28;20251;-81
2022/04/16 03:20:40;;;;;;;3.40;3.10;;;;;;;11.86;51.47;99793.50;7001317;28;20217;-83
2022/04/16 03:24:03;;;;;;;3.37;3.13;;;;;;;12.14;50.85;99797.97;7001478;28;20328;-81
2022/04/16 03:27:24;;;;;;;3.60;3.27;;;;;;;11.16;53.47;99805.78;7001303;28;20604;-81
2022/04/16 03:30:46;;;;;;;2.97;2.77;;;;;;;11.59;51.97;99791.47;7007047;28;20369;-81
2022/04/16 03:34:08;;;;;;;3.37;3.07;;;;;;;11.57;52.31;99782.69;7006320;28;20206;-83
2022/04/16 03:37:29;;;;;;;3.43;3.00;;;;;;;10.26;55.00;99787.00;7009155;28;20209;-84
2022/04/16 03:40:52;;;;;;;4.40;3.30;;;;;;;10.16;55.36;99748.69;7005874;28;20229;-83
2022/04/16 03:44:14;;;;;;;3.10;2.80;;;;;;;11.12;53.60;99780.16;7005980;28;20622;-83
2022/04/16 03:47:35;;;;;;;3.03;2.77;;;;;;;11.31;52.61;99776.91;7005014;28;20208;-83
2022/04/16 03:50:57;;;;;;;3.10;2.90;;;;;;;11.72;51.27;99778.13;7005788;28;20308;-83
2022/04/16 04:01:39;;;;;;;3.20;3.00;;;;;;;10.88;53.16;99793.91;7004822;28;20594;-83
2022/04/16 04:05:02;;;;;;;4.90;3.30;;;;;;;10.62;53.61;99798.88;7008001;28;20193;-83
2022/04/16 04:08:25;;;;;;;3.50;3.20;;;;;;;10.78;54.05;99806.78;7032312;28;20212;-83
2022/04/16 04:11:47;;;;;;;3.70;3.40;;;;;;;10.63;54.71;99812.16;7032780;28;20233;-83
2022/04/16 04:15:10;;;;;;;5.87;3.37;;;;;;;11.04;53.29;99810.75;7034711;28;20868;-83
2022/04/16 04:18:32;;;;;;;4.27;3.47;;;;;;;11.20;53.12;99805.22;7034382;28;20569;-83
2022/04/16 04:21:53;;;;;;;4.30;3.17;;;;;;;11.32;51.38;99805.56;7034899;28;20271;-83
2022/04/16 04:25:15;;;;;;;4.00;3.60;;;;;;;10.11;53.65;99821.94;7034572;28;20244;-83
2022/04/16 04:28:37;;;;;;;4.90;2.93;;;;;;;10.41;54.23;99806.78;7033865;28;20229;-83
2022/04/16 04:32:00;;;;;;;3.50;3.20;;;;;;;10.74;52.39;99825.22;7034064;28;20229;-83
2022/04/16 04:35:21;;;;;;;3.90;3.50;;;;;;;10.08;53.86;99787.28;7039421;28;20205;-83
2022/04/16 04:38:43;;;;;;;3.30;3.00;;;;;;;10.55;53.44;99828.41;7041444;28;20225;-83
2022/04/16 04:42:05;;;;;;;3.27;3.03;;;;;;;10.46;54.49;99834.03;7044003;28;20247;-83
2022/04/16 04:45:27;;;;;;;3.60;3.30;;;;;;;10.81;53.39;99828.03;7045641;28;20200;-83
2022/04/16 04:48:53;;;;;;;3.60;3.30;;;;;;;10.92;52.73;99833.81;7044393;28;20251;-83
2022/04/16 04:52:26;;;;;;;3.20;3.00;;;;;;;10.61;52.84;99780.97;7045527;28;20202;-83
2022/04/16 04:55:48;;;;;;;3.80;3.40;;;;;;;10.40;53.63;99840.16;7046971;28;20207;-84
2022/04/16 04:59:10;;;;;;;4.33;3.90;;;;;;;9.17;57.19;99830.22;7051421;28;20207;-85
2022/04/16 05:02:39;;;;;;;4.10;3.70;;;;;;;9.44;58.29;99833.34;7052024;28;20235;-84
2022/04/16 05:06:02;;;;;;;3.90;3.50;;;;;;;10.01;57.63;99840.19;7049696;28;20214;-84
2022/04/16 05:09:24;;;;;;;3.90;3.60;;;;;;;9.98;57.11;99850.47;7046625;28;20236;-84
2022/04/16 05:12:46;;;;;;;3.80;3.50;;;;;;;10.56;56.38;99843.56;7034561;28;20209;-84
2022/04/16 05:16:07;;;;;;;6.37;3.47;;;;;;;11.16;54.29;99828.19;7032739;28;20201;-84
2022/04/16 05:19:29;;;;;;;3.37;3.10;;;;;;;11.44;52.87;99847.28;7033693;28;20361;-84
2022/04/16 05:22:52;;;;;;;12.70;10.53;;;;;;;11.55;52.55;99833.34;7033345;28;20374;-84
2022/04/16 05:26:14;;;;;;;4.37;3.73;;;;;;;10.73;54.13;99796.56;7033267;28;20300;-84
2022/04/16 05:29:48;;;;;;;3.67;3.37;;;;;;;11.41;53.79;99839.59;7033685;28;20217;-84
2022/04/16 05:34:18;;;;;;;3.87;3.20;;;;;;;11.46;54.01;99856.06;7033852;28;20193;-84
2022/04/16 05:36:52;;;;;;;4.10;3.70;;;;;;;11.88;52.13;99850.88;7032441;28;20219;-83
2022/04/16 05:40:16;;;;;;;4.07;3.50;;;;;;;11.68;53.28;99849.78;7033613;28;20574;-84
2022/04/16 05:43:38;;;;;;;3.83;3.53;;;;;;;12.04;52.71;99846.09;7032561;28;20221;-84
2022/04/16 05:46:59;;;;;;;3.63;3.33;;;;;;;12.26;51.97;99855.09;7032074;28;20198;-84
2022/04/16 05:50:21;;;;;;;6.43;3.80;;;;;;;12.24;52.61;99860.72;7031732;28;20252;-86
2022/04/16 05:53:43;;;;;;;3.90;3.60;;;;;;;12.57;51.77;99855.66;7032030;28;20197;-86
2022/04/16 05:57:07;;;;;;;3.87;3.57;;;;;;;12.29;52.61;99847.47;7031859;28;20216;-83
2022/04/16 06:00:28;;;;;;;3.50;3.20;;;;;;;12.59;51.48;99846.31;7032939;28;20220;-82
2022/04/16 06:03:50;;;;;;;3.70;3.40;;;;;;;12.77;50.98;99853.97;7032397;28;20311;-82
2022/04/16 06:07:12;;;;;;;7.50;4.27;;;;;;;12.47;51.81;99855.97;7032046;28;20205;-83
2022/04/16 06:10:36;;;;;;;4.93;4.10;;;;;;;11.73;54.15;99858.13;7032690;28;20237;-82
2022/04/16 06:13:59;;;;;;;4.50;3.70;;;;;;;12.35;53.74;99865.63;7033608;28;20654;-80
2022/04/16 06:17:20;;;;;;;3.80;3.50;;;;;;;12.84;52.27;99871.13;7033746;28;20604;-81
2022/04/16 06:20:42;;;;;;;4.37;3.97;;;;;;;13.08;50.75;99866.19;7033930;28;20221;-82
2022/04/16 06:24:04;;;;;;;4.07;3.70;;;;;;;13.22;51.03;99876.06;7009912;28;20229;-80
2022/04/16 06:27:25;;;;;;;4.40;4.03;;;;;;;13.03;51.60;99892.16;7015589;28;20557;-80
2022/04/16 06:30:48;;;;;;;13.47;10.33;;;;;;;13.49;49.54;99859.00;7025923;28;20689;-80
2022/04/16 06:34:10;;;;;;;3.97;3.67;;;;;;;13.33;49.63;99880.13;7033456;28;20206;-80
2022/04/16 06:37:32;;;;;;;4.30;3.90;;;;;;;12.95;52.60;99892.25;7031248;28;20659;-80
2022/04/16 06:40:54;;;;;;;3.77;3.47;;;;;;;13.44;50.40;99879.56;7025533;28;20222;-80
2022/04/16 06:44:15;;;;;;;4.40;4.07;;;;;;;13.21;51.00;99885.25;7031404;28;20248;-80
2022/04/16 06:47:38;;;;;;;5.17;3.83;;;;;;;13.63;50.19;99868.88;7032658;28;20676;-79
2022/04/16 06:51:00;;;;;;;3.80;3.50;;;;;;;13.59;50.33;99872.19;7033607;28;20221;-80
2022/04/16 06:54:22;;;;;;;4.73;3.77;;;;;;;13.87;49.54;99886.56;7029228;28;20210;-80
2022/04/16 06:57:43;;;;;;;4.10;3.80;;;;;;;13.65;48.95;99887.66;7013501;28;20207;-80
2022/04/16 07:01:05;;;;;;;4.13;3.73;;;;;;;13.21;50.07;99879.00;7008225;28;20254;-80
2022/04/16 07:04:28;;;;;;;4.43;4.03;;;;;;;13.09;51.27;99892.22;7007898;28;20264;-80
2022/04/16 07:07:49;;;;;;;4.13;3.73;;;;;;;13.00;51.16;99892.53;7005674;28;20208;-80
2022/04/16 07:11:11;;;;;;;3.60;3.30;;;;;;;13.49;50.64;99883.38;7006571;28;20243;-80
2022/04/16 07:14:33;;;;;;;6.00;3.97;;;;;;;13.68;50.51;99901.66;7007010;28;20297;-80
2022/04/16 07:17:54;;;;;;;4.33;3.93;;;;;;;14.09;49.62;99894.38;7007000;28;20223;-80
2022/04/16 07:21:17;;;;;;;5.40;3.97;;;;;;;14.50;49.21;99891.66;7008137;28;20317;-80
2022/04/16 07:24:42;;;;;;;4.20;3.80;;;;;;;14.66;48.16;99875.00;7007063;28;20228;-77
2022/04/16 07:28:04;;;;;;;4.17;3.60;;;;;;;15.14;45.94;99892.84;7005407;28;20226;-78
2022/04/16 07:31:25;;;;;;;3.57;3.27;;;;;;;15.18;46.75;99877.81;7005448;28;20320;-78
2022/04/16 07:34:47;;;;;;;6.10;3.50;;;;;;;15.52;46.06;99891.22;7005040;28;20294;-78
2022/04/16 07:38:10;;;;;;;3.40;3.10;;;;;;;15.59;45.45;99892.88;7005609;28;20429;-79
2022/04/16 07:41:31;;;;;;;6.00;3.93;;;;;;;15.54;45.85;99884.53;7005936;28;20703;-79
2022/04/16 07:44:53;;;;;;;3.67;3.30;;;;;;;15.63;46.01;99893.31;7005224;28;20395;-79
2022/04/16 07:48:15;;;;;;;4.17;3.80;;;;;;;15.45;46.11;99893.09;7011222;28;20241;-79
2022/04/16 07:51:36;;;;;;;4.40;4.00;;;;;;;15.55;46.19;99905.22;7033407;28;20817;-79
2022/04/16 07:54:59;;;;;;;7.03;3.97;;;;;;;15.09;47.74;99909.75;7033230;28;20608;-79
2022/04/16 07:58:21;;;;;;;4.20;3.80;;;;;;;15.43;46.51;99914.19;7032221;28;20199;-79
2022/04/16 08:01:42;;;;;;;4.97;4.47;;;;;;;15.79;44.82;99915.44;7033426;28;20239;-79
2022/04/16 08:05:04;;;;;;;5.90;5.40;;;;;;;15.39;45.83;99924.66;7033371;28;20616;-79
2022/04/16 08:08:26;;;;;;;5.93;5.00;;;;;;;15.33;46.04;99924.69;7032406;28;20200;-79
2022/04/16 08:11:49;;;;;;;6.43;5.67;;;;;;;14.82;46.98;99880.06;7027521;28;20243;-79
2022/04/16 08:15:11;;;;;;;6.67;5.50;;;;;;;15.32;45.58;99923.81;7027020;28;20212;-79
2022/04/16 08:18:32;;;;;;;5.97;5.37;;;;;;;15.24;47.13;99934.03;7032688;28;20372;-79
2022/04/16 08:21:54;;;;;;;5.83;5.27;;;;;;;15.96;45.54;99921.25;7033182;28;20228;-79
2022/04/16 08:28:56;;;;;;;6.03;5.43;;;;;;;16.45;42.96;99913.41;7030770;28;20204;-79
2022/04/16 08:32:17;;;;;;;5.87;5.10;;;;;;;15.52;46.36;99932.00;7006175;28;20248;-79
2022/04/16 08:35:42;;;;;;;6.40;5.70;;;;;;;16.20;44.59;99929.59;7005432;28;20200;-78
2022/04/16 08:39:04;;;;;;;6.60;5.27;;;;;;;16.03;44.36;99930.22;7005273;28;20212;-79
2022/04/16 08:42:26;;;;;;;6.37;5.77;;;;;;;15.09;47.60;99945.09;7003723;28;20213;-79
2022/04/16 08:45:50;;;;;;;6.40;5.80;;;;;;;14.82;47.69;99945.22;7002589;28;20240;-79
2022/04/16 08:49:12;;;;;;;7.40;6.60;;;;;;;14.86;47.16;99939.19;7002524;28;20319;-79
2022/04/16 08:52:35;;;;;;;9.90;6.90;;;;;;;14.19;48.82;99942.88;7002927;28;20666;-79
2022/04/16 08:55:57;;;;;;;7.53;6.70;;;;;;;14.35;48.75;99954.25;7002334;28;20753;-79
2022/04/16 08:59:18;;;;;;;8.67;6.33;;;;;;;14.06;48.58;99938.19;7002408;28;20323;-79
2022/04/16 09:02:50;;;;;;;9.07;7.13;;;;;;;14.57;47.89;99955.78;7002383;28;20230;-79
2022/04/16 09:06:22;;;;;;;8.33;7.23;;;;;;;14.04;48.95;99964.66;7010898;28;20203;-79
2022/04/16 09:09:44;;;;;;;7.60;6.80;;;;;;;14.90;47.70;99964.03;7029147;28;20230;-79
2022/04/16 09:13:06;;;;;;;7.00;6.30;;;;;;;14.64;47.60;99955.81;7030343;28;20230;-79
2022/04/16 09:16:27;;;;;;;8.00;6.63;;;;;;;15.05;47.09;99970.97;7029722;28;20211;-79
2022/04/16 09:19:55;;;;;;;7.43;6.67;;;;;;;15.45;46.30;99970.03;7029870;28;20245;-79
2022/04/16 09:23:18;;;;;;;8.67;6.60;;;;;;;16.01;44.93;99959.53;7030158;28;20311;-79
2022/04/16 09:26:41;;;;;;;7.43;6.60;;;;;;;15.93;44.51;99976.91;7029342;28;20219;-79
2022/04/16 09:30:05;;;;;;;7.20;6.27;;;;;;;14.99;45.93;99977.22;7031281;28;20242;-80
2022/04/16 09:33:37;;;;;;;8.57;6.60;;;;;;;15.65;46.41;99959.16;7032686;28;20254;-79
2022/04/16 09:37:12;;;;;;;9.13;7.50;;;;;;;15.72;45.02;99963.56;7031233;28;20291;-79
2022/04/16 09:40:35;;;;;;;6.70;6.07;;;;;;;17.11;42.47;99961.88;7031022;28;20227;-79
2022/04/16 09:43:57;;;;;;;7.67;6.73;;;;;;;16.14;43.51;99952.19;7031366;28;20320;-79
2022/04/16 09:47:23;;;;;;;7.63;6.83;;;;;;;15.79;44.46;99955.38;7031090;28;20269;-79
2022/04/16 09:50:45;;;;;;;7.93;6.53;;;;;;;16.52;43.76;99955.88;7031449;28;20613;-79
2022/04/16 09:54:09;;;;;;;7.77;6.97;;;;;;;16.06;43.10;99940.72;7031567;28;20243;-79
2022/04/16 09:57:31;;;;;;;7.37;6.40;;;;;;;16.20;44.24;99951.34;7031337;28;20208;-79
2022/04/16 10:00:53;;;;;;;7.43;6.60;;;;;;;16.41;42.83;99945.69;7031223;28;20231;-79
2022/04/16 10:04:15;;;;;;;7.13;6.43;;;;;;;16.02;44.00;99940.31;7031202;28;20789;-79
2022/04/16 10:07:38;;;;;;;6.93;6.23;;;;;;;16.46;42.41;99947.75;7008700;28;20284;-79
2022/04/16 10:11:03;;;;;;;7.50;6.30;;;;;;;16.90;41.51;99945.88;7003219;28;20710;-79
2022/04/16 10:14:28;;;;;;;8.07;6.47;;;;;;;15.73;43.71;99953.50;7007319;28;20212;-79
2022/04/16 10:17:51;;;;;;;7.30;6.23;;;;;;;15.24;44.95;99975.63;7030894;28;20224;-79
2022/04/16 10:21:17;;;;;;;7.33;6.53;;;;;;;15.13;45.22;99973.53;7004830;28;20671;-79
2022/04/16 10:24:48;;;;;;;7.00;6.10;;;;;;;16.87;41.97;99970.00;7021601;28;20228;-79
2022/04/16 10:28:12;;;;;;;10.47;7.27;;;;;;;16.78;41.37;99961.22;7030636;28;20215;-79
2022/04/16 10:31:36;;;;;;;7.57;6.30;;;;;;;16.29;40.41;99971.00;7031085;28;20228;-79
2022/04/16 10:35:03;;;;;;;6.60;5.80;;;;;;;16.65;40.43;99968.63;7030487;28;20218;-79
2022/04/16 10:38:26;;;;;;;6.93;5.73;;;;;;;17.20;39.43;99965.16;7033537;28;20235;-79
2022/04/16 10:41:56;;;;;;;6.03;5.43;;;;;;;16.10;39.91;99967.28;7036928;28;20302;-79
2022/04/16 10:45:19;;;;;;;6.53;5.90;;;;;;;15.44;41.26;99953.91;7036458;28;20588;-79
2022/04/16 10:48:41;;;;;;;5.80;5.20;;;;;;;17.58;38.09;99936.81;7036488;28;20669;-79
2022/04/16 10:52:03;;;;;;;5.80;5.20;;;;;;;18.62;36.81;99954.88;7036250;28;20228;-78
2022/04/16 10:55:30;;;;;;;6.00;5.23;;;;;;;17.82;36.60;99955.06;7036900;28;20209;-79
2022/04/16 10:59:00;;;;;;;5.40;4.90;;;;;;;16.53;39.07;99970.34;7036199;28;20208;-79
2022/04/16 11:02:25;;;;;;;5.83;5.23;;;;;;;16.52;38.92;99965.94;7036303;28;20192;-79
2022/04/16 11:05:47;;;;;;;5.47;4.90;;;;;;;16.66;38.61;99964.84;7036001;28;20304;-79
2022/04/16 11:09:12;;;;;;;6.83;4.63;;;;;;;17.77;37.53;99951.34;7034675;28;20205;-79
2022/04/16 11:12:34;;;;;;;6.40;5.70;;;;;;;17.96;36.52;99961.22;7035876;28;20240;-79
2022/04/16 11:15:56;;;;;;;6.00;5.30;;;;;;;16.28;37.46;99972.06;7036218;28;20301;-79
2022/04/16 11:19:19;;;;;;;6.17;4.97;;;;;;;15.73;39.47;99973.38;7035430;28;20229;-79
2022/04/16 11:22:40;;;;;;;6.07;5.47;;;;;;;16.29;39.14;99958.22;7036015;28;20662;-79
2022/04/16 11:37:01;;;;;;;5.53;4.93;;;;;;;18.33;35.46;99952.91;7044897;28;20197;-78
2022/04/16 11:40:23;;;;;;;5.80;5.17;;;;;;;16.70;37.48;99963.34;7045085;28;20220;-79
2022/04/16 11:43:51;;;;;;;6.23;5.40;;;;;;;17.28;36.47;99951.28;7035622;28;20243;-79
2022/04/16 11:47:14;;;;;;;7.03;5.53;;;;;;;17.58;36.31;99953.16;7034561;28;20689;-79
2022/04/16 11:50:35;;;;;;;5.70;5.20;;;;;;;16.70;36.90;99949.75;7025316;28;20232;-77
2022/04/16 11:53:58;;;;;;;5.73;4.97;;;;;;;16.57;37.14;99956.06;7028844;28;20279;-77
2022/04/16 11:57:21;;;;;;;5.70;5.10;;;;;;;17.55;35.95;99947.34;7005214;28;20280;-77
2022/04/16 12:00:50;;;;;;;6.60;4.63;;;;;;;18.30;35.18;99928.75;7031392;28;20227;-77
2022/04/16 12:04:12;;;;;;;6.00;5.13;;;;;;;18.74;33.91;99942.09;7032925;28;20252;-77
2022/04/16 12:07:34;;;;;;;5.67;5.10;;;;;;;18.51;33.67;99944.72;7031739;28;20509;-78
2022/04/16 12:10:57;;;;;;;5.80;5.20;;;;;;;18.37;34.29;99937.75;7033467;28;20261;-77
2022/04/16 12:14:18;;;;;;;5.87;5.27;;;;;;;16.56;35.43;99954.41;7033335;28;20202;-77
2022/04/16 12:17:41;;;;;;;6.13;4.97;;;;;;;17.30;35.56;99944.56;7032383;28;20228;-79
2022/04/16 12:21:06;;;;;;;4.97;4.40;;;;;;;18.49;32.52;99938.66;7032076;28;20236;-77
2022/04/16 12:24:28;;;;;;;6.53;4.93;;;;;;;18.55;32.81;99945.94;7033549;28;20226;-78
2022/04/16 12:27:52;;;;;;;5.87;4.90;;;;;;;17.40;33.25;99933.19;7032850;28;20201;-78
2022/04/16 12:31:14;;;;;;;6.03;4.60;;;;;;;17.30;33.54;99936.38;7033147;28;20316;-77
2022/04/16 12:34:39;;;;;;;5.53;5.03;;;;;;;18.63;32.13;99937.41;7031645;28;20324;-78
2022/04/16 12:38:01;;;;;;;5.53;4.67;;;;;;;19.44;31.11;99927.66;7031456;28;20205;-78
2022/04/16 12:41:23;;;;;;;5.30;4.70;;;;;;;18.89;31.67;99926.16;7032628;28;20362;-77
2022/04/16 12:44:46;;;;;;;6.00;4.87;;;;;;;18.78;32.94;99923.34;7033139;28;20232;-77
2022/04/16 12:48:08;;;;;;;5.20;4.60;;;;;;;20.27;31.01;99925.59;7031872;28;20553;-78
2022/04/16 12:51:30;;;;;;;5.33;4.20;;;;;;;21.13;29.35;99921.66;7032309;28;20684;-77
2022/04/16 12:54:51;;;;;;;5.10;3.80;;;;;;;21.10;29.10;99924.06;7032416;28;20264;-77
2022/04/16 12:58:13;;;;;;;5.80;5.10;;;;;;;19.79;29.37;99927.69;7033086;28;20236;-77
2022/04/16 13:01:36;;;;;;;5.50;4.73;;;;;;;18.90;28.37;99916.03;7010996;28;20218;-78
2022/04/16 13:04:58;;;;;;;6.53;5.17;;;;;;;19.28;29.53;99897.44;7005413;28;20766;-77
2022/04/16 13:08:19;;;;;;;4.73;4.23;;;;;;;19.24;29.68;99910.75;7032397;28;20338;-77
2022/04/16 13:11:41;;;;;;;4.17;3.87;;;;;;;20.78;28.09;99899.00;7032975;28;20804;-78
2022/04/16 13:15:03;;;;;;;5.33;4.80;;;;;;;19.03;30.47;99910.38;7032145;28;20197;-77
2022/04/16 13:18:26;;;;;;;4.97;4.47;;;;;;;19.13;30.25;99903.31;7032830;28;20564;-77
2022/04/16 13:21:48;;;;;;;5.87;4.43;;;;;;;19.62;29.80;99902.94;7032951;28;20287;-77
2022/04/16 13:25:10;;;;;;;4.57;4.17;;;;;;;19.42;30.18;99890.66;7025669;28;20253;-77
2022/04/16 13:28:32;;;;;;;4.80;4.40;;;;;;;20.14;29.91;99896.53;7004556;28;20189;-77
2022/04/16 13:31:55;;;;;;;5.07;4.40;;;;;;;19.76;28.03;99890.69;7004443;28;20233;-77
2022/04/16 13:35:18;;;;;;;5.10;4.30;;;;;;;19.16;29.64;99883.69;7005191;28;20233;-77
2022/04/16 13:38:40;;;;;;;4.40;4.00;;;;;;;19.22;29.69;99888.25;7003860;28;20216;-77
2022/04/16 13:42:00;;;;;;;4.20;3.80;;;;;;;20.27;28.48;99889.97;7004279;28;20226;-77
2022/04/16 13:45:22;;;;;;;4.83;4.00;;;;;;;19.78;28.39;99863.09;7004335;28;20253;-77
2022/04/16 13:48:44;;;;;;;4.90;4.40;;;;;;;18.37;31.50;99887.75;7003226;28;20293;-77
2022/04/16 13:52:07;;;;;;;5.63;4.30;;;;;;;18.78;29.91;99885.94;7004522;28;20237;-77
2022/04/16 13:55:29;;;;;;;4.93;4.40;;;;;;;18.01;31.16;99888.56;7004019;28;20210;-77
2022/04/16 13:58:50;;;;;;;4.63;4.00;;;;;;;17.81;30.82;99866.09;7008649;28;20569;-77
2022/04/16 14:02:12;;;;;;;4.03;3.63;;;;;;;18.02;31.24;99892.09;7032226;28;20674;-79
2022/04/16 14:05:46;;;;;;;3.70;3.37;;;;;;;18.55;29.97;99899.50;7031598;28;20221;-76
2022/04/16 14:09:09;;;;;;;4.03;3.67;;;;;;;18.96;29.73;99874.09;7031947;28;20189;-77
2022/04/16 14:12:30;;;;;;;5.77;3.83;;;;;;;19.41;29.38;99884.34;7031195;28;20213;-77
2022/04/16 14:15:53;;;;;;;4.50;3.93;;;;;;;18.59;30.17;99880.75;7030926;28;20284;-77
2022/04/16 14:19:15;;;;;;;3.90;3.60;;;;;;;19.08;29.70;99870.34;7031839;28;20578;-77
2022/04/16 14:22:37;;;;;;;3.77;3.30;;;;;;;19.51;29.22;99872.84;7031947;28;20258;-77
2022/04/16 14:26:00;;;;;;;4.87;3.93;;;;;;;18.36;29.86;99884.19;7030768;28;20703;-77
2022/04/16 14:29:22;;;;;;;4.27;3.70;;;;;;;18.57;30.08;99872.78;7017590;28;20246;-77
2022/04/16 14:32:43;;;;;;;3.33;3.03;;;;;;;18.40;30.75;99884.56;7003890;28;20217;-77
2022/04/16 14:36:06;;;;;;;3.87;3.57;;;;;;;17.66;30.48;99859.31;7003646;28;20210;-77
2022/04/16 14:39:28;;;;;;;3.83;3.40;;;;;;;17.94;31.65;99852.31;7004183;28;20228;-77
2022/04/16 14:42:51;;;;;;;3.47;3.17;;;;;;;17.96;31.85;99872.03;7008241;28;20209;-78
2022/04/16 14:46:12;;;;;;;3.67;3.27;;;;;;;18.65;29.55;99868.88;7009300;28;20214;-78
2022/04/16 14:49:34;;;;;;;3.20;2.90;;;;;;;18.85;29.01;99858.50;7024076;28;20222;-78
2022/04/16 14:52:56;;;;;;;3.30;3.00;;;;;;;16.73;31.52;99870.31;7023114;28;20201;-77
2022/04/16 14:56:18;;;;;;;4.30;3.23;;;;;;;17.88;29.71;99866.03;7021936;28;20197;-77
2022/04/16 14:59:42;;;;;;;3.27;2.97;;;;;;;17.89;28.67;99833.06;7021432;28;20259;-78
2022/04/16 15:03:04;;;;;;;3.87;3.47;;;;;;;19.06;28.51;99853.38;7017337;28;20232;-78
2022/04/16 15:06:25;;;;;;;3.80;3.50;;;;;;;18.20;28.59;99873.00;7020351;28;20241;-78
2022/04/16 15:09:47;;;;;;;3.97;3.57;;;;;;;18.22;28.33;99844.41;7020565;28;20596;-77
2022/04/16 15:13:08;;;;;;;4.57;3.63;;;;;;;18.64;27.91;99859.03;7015721;28;20193;-78
2022/04/16 15:16:31;;;;;;;3.77;3.40;;;;;;;18.09;28.09;99876.47;7014322;28;20289;-78
2022/04/16 15:19:53;;;;;;;4.13;3.20;;;;;;;17.42;26.84;99871.09;7020298;28;20225;-78
2022/04/16 15:23:15;;;;;;;4.63;3.27;;;;;;;18.23;26.99;99865.19;7017101;28;20214;-78
2022/04/16 15:26:36;;;;;;;4.60;3.50;;;;;;;18.72;25.72;99877.81;7022999;28;20226;-78
2022/04/16 15:29:58;;;;;;;5.07;3.67;;;;;;;18.07;27.11;99873.16;7035038;28;20227;-78
2022/04/16 15:33:21;;;;;;;4.43;4.03;;;;;;;18.80;25.84;99863.84;7034524;28;20345;-78
2022/04/16 15:36:43;;;;;;;3.70;3.30;;;;;;;18.70;24.72;99872.59;7035047;28;20205;-78
2022/04/16 15:40:05;;;;;;;3.40;3.10;;;;;;;18.85;24.79;99831.16;7036719;28;20354;-79
2022/04/16 15:43:27;;;;;;;4.63;2.93;;;;;;;18.80;25.22;99864.66;7036399;28;20237;-78
2022/04/16 15:46:49;;;;;;;3.10;2.90;;;;;;;18.96;24.35;99857.72;7034985;28;20226;-78
2022/04/16 15:50:13;;;;;;;4.80;3.00;;;;;;;18.33;25.44;99856.53;7035675;28;20382;-78
2022/04/16 15:53:34;;;;;;;3.77;3.10;;;;;;;18.67;25.43;99878.53;7035555;28;20205;-78
2022/04/16 15:56:56;;;;;;;3.10;2.80;;;;;;;18.09;24.30;99874.59;7035303;28;20257;-77
2022/04/16 16:00:18;;;;;;;3.20;2.90;;;;;;;18.90;23.91;99864.97;7035191;28;20233;-77
2022/04/16 16:03:39;;;;;;;3.00;2.70;;;;;;;19.36;23.34;99872.47;7034805;28;20238;-78
2022/04/16 16:07:02;;;;;;;5.13;2.60;;;;;;;18.87;22.95;99868.13;7034984;28;20315;-78
2022/04/16 16:10:24;;;;;;;3.13;2.80;;;;;;;17.73;24.09;99862.81;7036137;28;20275;-77
2022/04/16 16:13:46;;;;;;;4.03;2.57;;;;;;;17.71;23.00;99870.41;7044684;28;20205;-78
2022/04/16 16:17:07;;;;;;;4.27;2.73;;;;;;;18.02;22.91;99873.84;7041360;28;20201;-77
2022/04/16 16:20:29;;;;;;;2.67;2.47;;;;;;;18.80;21.89;99867.41;7034406;28;20341;-76
2022/04/16 16:23:52;;;;;;;2.63;2.20;;;;;;;19.12;21.75;99841.50;7033827;28;20212;-78